sensor_id;sensor_type;location;lat;lon;timestamp;temperature;humidity
2977;DHT22;1498;51.500;7.440;2023-02-03T00:02:19;10.00;99.90
2977;DHT22;1498;51.500;7.440;2023-02-03T00:04:44;9.90;99.90
2977;DHT22;1498;51.500;7.440;2023-02-03T00:07:11;10.00;99.90
2977;DHT22;1498;51.500;7.440;2023-02-03T00:09:38;10.00;99.90
2977;DHT22;1498;51.500;7.440;2023-02-03T00:12:04;10.10;99.90
2977;DHT22;1498;51.500;7.440;2023-02-03T00:14:30;10.10;99.90
2977;DHT22;1498;51.500;7.440;2023-02-03T00:16:58;10.00;99.90
2977;DHT22;1498;51.500;7.440;2023-02-03T00:19:23;10.10;99.90
2977;DHT22;1498;51.500;7.440;2023-02-03T00:21:48;10.10;99.90
2977;DHT22;1498;51.500;7.440;2023-02-03T00:24:14;10.10;99.90
2977;DHT22;1498;51.500;7.440;2023-02-03T00:26:41;10.10;99.90
2977;DHT22;1498;51.500;7.440;2023-02-03T00:29:07;10.10;99.90
2977;DHT22;1498;51.500;7.440;2023-02-03T00:31:33;10.00;99.90
2977;DHT22;1498;51.500;7.440;2023-02-03T00:33:59;10.10;99.90
2977;DHT22;1498;51.500;7.440;2023-02-03T00:36:25;10.10;99.90
2977;DHT22;1498;51.500;7.440;2023-02-03T00:38:51;10.10;99.90
2977;DHT22;1498;51.500;7.440;2023-02-03T00:41:18;10.10;99.90
2977;DHT22;1498;51.500;7.440;2023-02-03T00:43:43;10.20;99.90
2977;DHT22;1498;51.500;7.440;2023-02-03T00:46:09;10.10;99.90
2977;DHT22;1498;51.500;7.440;2023-02-03T00:48:35;10.10;99.90
2977;DHT22;1498;51.500;7.440;2023-02-03T00:51:00;10.10;99.90
2977;DHT22;1498;51.500;7.440;2023-02-03T00:53:26;10.10;99.90
2977;DHT22;1498;51.500;7.440;2023-02-03T00:55:51;10.20;99.90
2977;DHT22;1498;51.500;7.440;2023-02-03T00:58:17;10.10;99.90
2977;DHT22;1498;51.500;7.440;2023-02-03T01:00:42;10.10;99.90
2977;DHT22;1498;51.500;7.440;2023-02-03T01:03:08;10.10;99.90
2977;DHT22;1498;51.500;7.440;2023-02-03T01:05:35;10.20;99.90
2977;DHT22;1498;51.500;7.440;2023-02-03T01:08:01;10.10;99.90
2977;DHT22;1498;51.500;7.440;2023-02-03T01:10:27;10.10;99.90
2977;DHT22;1498;51.500;7.440;2023-02-03T01:12:52;10.20;99.90
2977;DHT22;1498;51.500;7.440;2023-02-03T01:15:18;10.20;99.90
2977;DHT22;1498;51.500;7.440;2023-02-03T01:17:43;10.20;99.90
2977;DHT22;1498;51.500;7.440;2023-02-03T01:20:09;10.20;99.90
2977;DHT22;1498;51.500;7.440;2023-02-03T01:22:37;10.10;99.90
2977;DHT22;1498;51.500;7.440;2023-02-03T01:25:02;10.10;99.90
2977;DHT22;1498;51.500;7.440;2023-02-03T01:27:28;10.20;99.90
2977;DHT22;1498;51.500;7.440;2023-02-03T01:29:53;10.10;99.90
2977;DHT22;1498;51.500;7.440;2023-02-03T01:32:19;10.20;99.90
2977;DHT22;1498;51.500;7.440;2023-02-03T01:34:44;10.20;99.90
2977;DHT22;1498;51.500;7.440;2023-02-03T01:37:10;10.20;99.90
2977;DHT22;1498;51.500;7.440;2023-02-03T01:39:36;10.20;99.90
2977;DHT22;1498;51.500;7.440;2023-02-03T01:42:01;10.20;99.90
2977;DHT22;1498;51.500;7.440;2023-02-03T01:44:43;10.30;99.90
2977;DHT22;1498;51.500;7.440;2023-02-03T01:47:16;10.20;99.90
2977;DHT22;1498;51.500;7.440;2023-02-03T01:49:58;10.20;99.90
2977;DHT22;1498;51.500;7.440;2023-02-03T01:52:25;10.30;99.90
2977;DHT22;1498;51.500;7.440;2023-02-03T01:54:54;10.30;99.90
2977;DHT22;1498;51.500;7.440;2023-02-03T01:57:25;10.20;99.90
2977;DHT22;1498;51.500;7.440;2023-02-03T01:59:53;10.30;99.90
2977;DHT22;1498;51.500;7.440;2023-02-03T02:02:20;10.30;99.90
2977;DHT22;1498;51.500;7.440;2023-02-03T02:07:19;10.50;99.90
2977;DHT22;1498;51.500;7.440;2023-02-03T02:09:45;10.40;99.90
2977;DHT22;1498;51.500;7.440;2023-02-03T02:12:12;10.40;99.90
2977;DHT22;1498;51.500;7.440;2023-02-03T02:14:38;10.30;99.90
2977;DHT22;1498;51.500;7.440;2023-02-03T02:22:50;10.30;99.90
2977;DHT22;1498;51.500;7.440;2023-02-03T02:28:53;10.30;99.90
2977;DHT22;1498;51.500;7.440;2023-02-03T02:34:24;10.10;99.90
2977;DHT22;1498;51.500;7.440;2023-02-03T02:39:44;10.20;99.90
2977;DHT22;1498;51.500;7.440;2023-02-03T02:42:21;10.20;99.90
2977;DHT22;1498;51.500;7.440;2023-02-03T02:44:51;10.10;99.90
2977;DHT22;1498;51.500;7.440;2023-02-03T02:47:19;10.20;99.90
2977;DHT22;1498;51.500;7.440;2023-02-03T02:50:05;10.30;99.90
2977;DHT22;1498;51.500;7.440;2023-02-03T02:52:36;10.30;99.90
2977;DHT22;1498;51.500;7.440;2023-02-03T02:55:19;10.30;99.90
2977;DHT22;1498;51.500;7.440;2023-02-03T02:57:50;10.40;99.90
2977;DHT22;1498;51.500;7.440;2023-02-03T03:00:16;10.30;99.90
2977;DHT22;1498;51.500;7.440;2023-02-03T03:02:41;10.20;99.90
2977;DHT22;1498;51.500;7.440;2023-02-03T03:05:09;10.30;99.90
2977;DHT22;1498;51.500;7.440;2023-02-03T03:07:48;10.30;99.90
2977;DHT22;1498;51.500;7.440;2023-02-03T03:10:17;10.30;99.90
2977;DHT22;1498;51.500;7.440;2023-02-03T03:12:51;10.40;99.90
2977;DHT22;1498;51.500;7.440;2023-02-03T03:15:21;10.40;99.90
2977;DHT22;1498;51.500;7.440;2023-02-03T03:17:56;10.40;99.90
2977;DHT22;1498;51.500;7.440;2023-02-03T03:20:24;10.40;99.90
2977;DHT22;1498;51.500;7.440;2023-02-03T03:22:55;10.30;99.90
2977;DHT22;1498;51.500;7.440;2023-02-03T03:25:36;10.40;99.90
2977;DHT22;1498;51.500;7.440;2023-02-03T03:28:11;10.40;99.90
2977;DHT22;1498;51.500;7.440;2023-02-03T03:30:38;10.40;99.90
2977;DHT22;1498;51.500;7.440;2023-02-03T03:33:04;10.30;99.90
2977;DHT22;1498;51.500;7.440;2023-02-03T03:35:36;10.30;99.90
2977;DHT22;1498;51.500;7.440;2023-02-03T03:38:31;10.30;99.90
2977;DHT22;1498;51.500;7.440;2023-02-03T05:32:39;10.30;99.90
2977;DHT22;1498;51.500;7.440;2023-02-03T05:35:05;10.30;99.90
2977;DHT22;1498;51.500;7.440;2023-02-03T05:37:31;10.30;99.90
2977;DHT22;1498;51.500;7.440;2023-02-03T05:40:05;10.30;99.90
2977;DHT22;1498;51.500;7.440;2023-02-03T05:42:49;10.30;99.90
2977;DHT22;1498;51.500;7.440;2023-02-03T05:45:15;10.40;99.90
2977;DHT22;1498;51.500;7.440;2023-02-03T05:47:41;10.50;99.90
2977;DHT22;1498;51.500;7.440;2023-02-03T05:50:07;10.50;99.90
2977;DHT22;1498;51.500;7.440;2023-02-03T05:52:32;10.40;99.90
2977;DHT22;1498;51.500;7.440;2023-02-03T05:54:58;10.40;99.90
2977;DHT22;1498;51.500;7.440;2023-02-03T05:57:23;10.50;99.90
2977;DHT22;1498;51.500;7.440;2023-02-03T05:59:49;10.50;99.90
2977;DHT22;1498;51.500;7.440;2023-02-03T06:02:15;10.40;99.90
2977;DHT22;1498;51.500;7.440;2023-02-03T06:04:40;10.40;99.90
2977;DHT22;1498;51.500;7.440;2023-02-03T06:07:06;10.40;99.90
2977;DHT22;1498;51.500;7.440;2023-02-03T06:09:31;10.40;99.90
2977;DHT22;1498;51.500;7.440;2023-02-03T06:11:57;10.40;99.90
2977;DHT22;1498;51.500;7.440;2023-02-03T06:14:23;10.50;99.90
2977;DHT22;1498;51.500;7.440;2023-02-03T06:16:48;10.40;99.90
2977;DHT22;1498;51.500;7.440;2023-02-03T06:19:14;10.40;99.90
2977;DHT22;1498;51.500;7.440;2023-02-03T06:21:39;10.50;99.90
2977;DHT22;1498;51.500;7.440;2023-02-03T06:24:05;10.40;99.90
2977;DHT22;1498;51.500;7.440;2023-02-03T06:26:31;10.40;99.90
2977;DHT22;1498;51.500;7.440;2023-02-03T06:28:56;10.40;99.90
2977;DHT22;1498;51.500;7.440;2023-02-03T06:31:22;10.60;99.90
2977;DHT22;1498;51.500;7.440;2023-02-03T06:33:47;10.50;99.90
2977;DHT22;1498;51.500;7.440;2023-02-03T06:36:14;10.60;99.90
2977;DHT22;1498;51.500;7.440;2023-02-03T06:38:39;10.50;99.90
2977;DHT22;1498;51.500;7.440;2023-02-03T06:41:05;10.60;99.90
2977;DHT22;1498;51.500;7.440;2023-02-03T06:43:31;10.60;99.90
2977;DHT22;1498;51.500;7.440;2023-02-03T06:45:56;10.40;99.90
2977;DHT22;1498;51.500;7.440;2023-02-03T06:48:22;10.40;99.90
2977;DHT22;1498;51.500;7.440;2023-02-03T06:50:48;10.30;99.90
2977;DHT22;1498;51.500;7.440;2023-02-03T06:53:13;10.50;99.90
2977;DHT22;1498;51.500;7.440;2023-02-03T06:55:39;10.40;99.90
2977;DHT22;1498;51.500;7.440;2023-02-03T06:58:04;10.40;99.90
2977;DHT22;1498;51.500;7.440;2023-02-03T07:00:30;10.40;99.90
2977;DHT22;1498;51.500;7.440;2023-02-03T07:02:57;10.40;99.90
2977;DHT22;1498;51.500;7.440;2023-02-03T07:05:24;10.30;99.90
2977;DHT22;1498;51.500;7.440;2023-02-03T07:07:52;10.30;99.90
2977;DHT22;1498;51.500;7.440;2023-02-03T07:10:18;10.30;99.90
2977;DHT22;1498;51.500;7.440;2023-02-03T07:12:43;10.30;99.90
2977;DHT22;1498;51.500;7.440;2023-02-03T07:15:10;10.30;99.90
2977;DHT22;1498;51.500;7.440;2023-02-03T07:17:36;10.20;99.90
2977;DHT22;1498;51.500;7.440;2023-02-03T07:20:02;10.20;99.90
2977;DHT22;1498;51.500;7.440;2023-02-03T07:22:27;10.20;99.90
2977;DHT22;1498;51.500;7.440;2023-02-03T07:24:53;10.20;99.90
2977;DHT22;1498;51.500;7.440;2023-02-03T07:27:18;10.20;99.90
2977;DHT22;1498;51.500;7.440;2023-02-03T07:29:44;10.20;99.90
2977;DHT22;1498;51.500;7.440;2023-02-03T07:32:10;10.10;99.90
2977;DHT22;1498;51.500;7.440;2023-02-03T07:34:36;10.20;99.90
2977;DHT22;1498;51.500;7.440;2023-02-03T07:37:01;10.10;99.90
2977;DHT22;1498;51.500;7.440;2023-02-03T07:39:27;10.20;99.90
2977;DHT22;1498;51.500;7.440;2023-02-03T07:41:52;10.20;99.90
2977;DHT22;1498;51.500;7.440;2023-02-03T07:44:18;10.10;99.90
2977;DHT22;1498;51.500;7.440;2023-02-03T07:46:43;10.00;99.90
2977;DHT22;1498;51.500;7.440;2023-02-03T07:49:10;10.00;99.90
2977;DHT22;1498;51.500;7.440;2023-02-03T07:51:36;10.10;99.90
2977;DHT22;1498;51.500;7.440;2023-02-03T07:54:02;10.30;99.90
2977;DHT22;1498;51.500;7.440;2023-02-03T07:56:28;10.30;99.90
2977;DHT22;1498;51.500;7.440;2023-02-03T07:58:55;10.20;99.90
2977;DHT22;1498;51.500;7.440;2023-02-03T08:01:20;10.30;99.90
2977;DHT22;1498;51.500;7.440;2023-02-03T08:03:46;10.30;99.90
2977;DHT22;1498;51.500;7.440;2023-02-03T08:06:11;10.40;99.90
2977;DHT22;1498;51.500;7.440;2023-02-03T08:08:37;10.30;99.90
2977;DHT22;1498;51.500;7.440;2023-02-03T08:11:02;10.40;99.90
2977;DHT22;1498;51.500;7.440;2023-02-03T08:13:28;10.40;99.90
2977;DHT22;1498;51.500;7.440;2023-02-03T08:15:53;10.40;99.90
2977;DHT22;1498;51.500;7.440;2023-02-03T08:18:19;10.40;99.90
2977;DHT22;1498;51.500;7.440;2023-02-03T08:20:48;10.40;99.90
2977;DHT22;1498;51.500;7.440;2023-02-03T08:23:14;10.40;99.90
2977;DHT22;1498;51.500;7.440;2023-02-03T08:25:39;10.50;99.90
2977;DHT22;1498;51.500;7.440;2023-02-03T08:28:05;10.50;99.90
2977;DHT22;1498;51.500;7.440;2023-02-03T08:30:30;10.60;99.90
2977;DHT22;1498;51.500;7.440;2023-02-03T08:32:56;10.60;99.90
2977;DHT22;1498;51.500;7.440;2023-02-03T08:35:22;10.50;99.90
2977;DHT22;1498;51.500;7.440;2023-02-03T08:37:48;10.50;99.90
2977;DHT22;1498;51.500;7.440;2023-02-03T08:40:14;10.50;99.90
2977;DHT22;1498;51.500;7.440;2023-02-03T08:42:39;10.40;99.90
2977;DHT22;1498;51.500;7.440;2023-02-03T08:45:05;10.50;99.90
2977;DHT22;1498;51.500;7.440;2023-02-03T08:47:31;10.50;99.90
2977;DHT22;1498;51.500;7.440;2023-02-03T08:49:57;10.50;99.90
2977;DHT22;1498;51.500;7.440;2023-02-03T08:52:22;10.60;99.90
2977;DHT22;1498;51.500;7.440;2023-02-03T08:54:48;10.60;99.90
2977;DHT22;1498;51.500;7.440;2023-02-03T08:57:14;10.60;99.90
2977;DHT22;1498;51.500;7.440;2023-02-03T08:59:41;10.70;99.90
2977;DHT22;1498;51.500;7.440;2023-02-03T09:02:13;10.60;99.90
2977;DHT22;1498;51.500;7.440;2023-02-03T09:04:39;10.70;99.90
2977;DHT22;1498;51.500;7.440;2023-02-03T09:07:05;10.70;99.90
2977;DHT22;1498;51.500;7.440;2023-02-03T09:09:30;10.40;99.90
2977;DHT22;1498;51.500;7.440;2023-02-03T09:11:56;10.60;99.90
2977;DHT22;1498;51.500;7.440;2023-02-03T09:14:27;10.40;99.90
2977;DHT22;1498;51.500;7.440;2023-02-03T09:16:53;10.40;99.90
2977;DHT22;1498;51.500;7.440;2023-02-03T09:19:19;10.40;99.90
2977;DHT22;1498;51.500;7.440;2023-02-03T09:21:44;10.40;99.90
2977;DHT22;1498;51.500;7.440;2023-02-03T09:24:13;10.50;99.90
2977;DHT22;1498;51.500;7.440;2023-02-03T09:26:39;10.60;99.90
2977;DHT22;1498;51.500;7.440;2023-02-03T09:29:05;10.60;99.90
2977;DHT22;1498;51.500;7.440;2023-02-03T09:31:31;10.50;99.90
2977;DHT22;1498;51.500;7.440;2023-02-03T09:33:58;10.60;99.90
2977;DHT22;1498;51.500;7.440;2023-02-03T09:36:24;10.60;99.90
2977;DHT22;1498;51.500;7.440;2023-02-03T09:38:49;10.60;99.90
2977;DHT22;1498;51.500;7.440;2023-02-03T09:44:48;10.50;99.90
2977;DHT22;1498;51.500;7.440;2023-02-03T09:47:26;10.60;99.90
2977;DHT22;1498;51.500;7.440;2023-02-03T09:50:01;10.60;99.90
2977;DHT22;1498;51.500;7.440;2023-02-03T09:52:35;10.70;99.90
2977;DHT22;1498;51.500;7.440;2023-02-03T09:55:05;10.70;99.90
2977;DHT22;1498;51.500;7.440;2023-02-03T09:57:39;10.50;99.90
2977;DHT22;1498;51.500;7.440;2023-02-03T10:00:18;10.70;99.90
2977;DHT22;1498;51.500;7.440;2023-02-03T10:03:01;10.70;99.90
2977;DHT22;1498;51.500;7.440;2023-02-03T10:08:40;10.70;99.90
2977;DHT22;1498;51.500;7.440;2023-02-03T10:16:15;10.70;99.90
2977;DHT22;1498;51.500;7.440;2023-02-03T10:18:52;10.70;99.90
2977;DHT22;1498;51.500;7.440;2023-02-03T10:21:36;10.50;99.90
2977;DHT22;1498;51.500;7.440;2023-02-03T10:24:09;10.60;99.90
2977;DHT22;1498;51.500;7.440;2023-02-03T10:26:37;10.60;99.90
2977;DHT22;1498;51.500;7.440;2023-02-03T10:29:28;10.70;99.90
2977;DHT22;1498;51.500;7.440;2023-02-03T10:31:57;10.70;99.90
2977;DHT22;1498;51.500;7.440;2023-02-03T10:34:23;10.50;99.90
2977;DHT22;1498;51.500;7.440;2023-02-03T10:42:06;10.80;99.90
2977;DHT22;1498;51.500;7.440;2023-02-03T10:44:46;11.00;99.90
2977;DHT22;1498;51.500;7.440;2023-02-03T10:47:30;11.70;99.90
2977;DHT22;1498;51.500;7.440;2023-02-03T10:50:05;12.10;99.90
2977;DHT22;1498;51.500;7.440;2023-02-03T10:52:33;12.30;99.90
2977;DHT22;1498;51.500;7.440;2023-02-03T10:55:05;12.50;99.90
2977;DHT22;1498;51.500;7.440;2023-02-03T10:57:35;12.80;99.90
2977;DHT22;1498;51.500;7.440;2023-02-03T11:03:05;12.70;99.90
2977;DHT22;1498;51.500;7.440;2023-02-03T11:05:31;12.70;99.90
2977;DHT22;1498;51.500;7.440;2023-02-03T11:07:56;12.50;99.90
2977;DHT22;1498;51.500;7.440;2023-02-03T11:10:29;12.20;99.90
2977;DHT22;1498;51.500;7.440;2023-02-03T11:24:04;11.40;99.90
2977;DHT22;1498;51.500;7.440;2023-02-03T11:26:35;11.30;99.90
2977;DHT22;1498;51.500;7.440;2023-02-03T11:29:03;11.40;99.90
2977;DHT22;1498;51.500;7.440;2023-02-03T11:31:33;11.30;99.90
2977;DHT22;1498;51.500;7.440;2023-02-03T11:34:02;11.30;99.90
2977;DHT22;1498;51.500;7.440;2023-02-03T11:36:30;11.30;99.90
2977;DHT22;1498;51.500;7.440;2023-02-03T11:39:16;11.30;99.90
2977;DHT22;1498;51.500;7.440;2023-02-03T11:41:42;11.30;99.90
2977;DHT22;1498;51.500;7.440;2023-02-03T11:44:19;11.20;99.90
2977;DHT22;1498;51.500;7.440;2023-02-03T11:46:47;11.20;99.90
2977;DHT22;1498;51.500;7.440;2023-02-03T11:49:28;11.20;99.90
2977;DHT22;1498;51.500;7.440;2023-02-03T11:52:12;11.20;99.90
2977;DHT22;1498;51.500;7.440;2023-02-03T11:57:35;11.20;99.90
2977;DHT22;1498;51.500;7.440;2023-02-03T12:00:30;11.20;99.90
2977;DHT22;1498;51.500;7.440;2023-02-03T12:06:13;11.00;99.90
2977;DHT22;1498;51.500;7.440;2023-02-03T12:14:16;11.20;99.90
2977;DHT22;1498;51.500;7.440;2023-02-03T12:25:44;11.20;99.90
2977;DHT22;1498;51.500;7.440;2023-02-03T12:31:23;11.00;99.90
2977;DHT22;1498;51.500;7.440;2023-02-03T12:34:02;11.00;99.90
2977;DHT22;1498;51.500;7.440;2023-02-03T12:36:34;10.90;99.90
2977;DHT22;1498;51.500;7.440;2023-02-03T12:39:22;10.90;99.90
2977;DHT22;1498;51.500;7.440;2023-02-03T12:41:56;11.00;99.90
2977;DHT22;1498;51.500;7.440;2023-02-03T12:44:38;11.10;99.90
2977;DHT22;1498;51.500;7.440;2023-02-03T12:47:30;11.20;99.90
2977;DHT22;1498;51.500;7.440;2023-02-03T12:50:22;11.20;99.90
2977;DHT22;1498;51.500;7.440;2023-02-03T12:53:05;11.20;99.90
2977;DHT22;1498;51.500;7.440;2023-02-03T12:55:40;11.20;99.90
2977;DHT22;1498;51.500;7.440;2023-02-03T12:58:21;11.10;99.90
2977;DHT22;1498;51.500;7.440;2023-02-03T13:00:53;11.10;99.90
2977;DHT22;1498;51.500;7.440;2023-02-03T13:06:31;11.10;99.90
2977;DHT22;1498;51.500;7.440;2023-02-03T13:09:02;11.00;99.90
2977;DHT22;1498;51.500;7.440;2023-02-03T13:14:08;11.10;99.90
2977;DHT22;1498;51.500;7.440;2023-02-03T13:16:39;11.20;99.90
2977;DHT22;1498;51.500;7.440;2023-02-03T13:19:12;11.30;99.90
2977;DHT22;1498;51.500;7.440;2023-02-03T13:21:39;11.20;99.90
2977;DHT22;1498;51.500;7.440;2023-02-03T13:24:06;11.10;99.90
2977;DHT22;1498;51.500;7.440;2023-02-03T13:26:59;11.10;99.90
2977;DHT22;1498;51.500;7.440;2023-02-03T13:38:25;11.00;99.90
2977;DHT22;1498;51.500;7.440;2023-02-03T13:43:34;10.90;99.90
2977;DHT22;1498;51.500;7.440;2023-02-03T13:46:01;10.90;99.90
2977;DHT22;1498;51.500;7.440;2023-02-03T13:48:30;10.90;99.90
2977;DHT22;1498;51.500;7.440;2023-02-03T13:53:44;10.80;99.90
2977;DHT22;1498;51.500;7.440;2023-02-03T13:56:18;10.70;99.90
2977;DHT22;1498;51.500;7.440;2023-02-03T13:58:59;10.60;99.90
2977;DHT22;1498;51.500;7.440;2023-02-03T14:03:54;10.70;99.90
2977;DHT22;1498;51.500;7.440;2023-02-03T14:22:57;10.80;99.90
2977;DHT22;1498;51.500;7.440;2023-02-03T14:25:25;10.80;99.90
2977;DHT22;1498;51.500;7.440;2023-02-03T14:28:02;10.80;99.90
2977;DHT22;1498;51.500;7.440;2023-02-03T14:30:30;10.70;99.90
2977;DHT22;1498;51.500;7.440;2023-02-03T14:32:58;10.70;99.90
2977;DHT22;1498;51.500;7.440;2023-02-03T14:35:32;10.60;99.90
2977;DHT22;1498;51.500;7.440;2023-02-03T14:38:04;10.60;99.90
2977;DHT22;1498;51.500;7.440;2023-02-03T14:40:56;10.60;99.90
2977;DHT22;1498;51.500;7.440;2023-02-03T14:43:40;10.70;99.90
2977;DHT22;1498;51.500;7.440;2023-02-03T14:46:39;10.60;99.90
2977;DHT22;1498;51.500;7.440;2023-02-03T15:02:24;10.80;99.90
2977;DHT22;1498;51.500;7.440;2023-02-03T15:04:52;10.70;99.90
2977;DHT22;1498;51.500;7.440;2023-02-03T15:07:40;10.70;99.90
2977;DHT22;1498;51.500;7.440;2023-02-03T15:10:19;10.70;99.90
2977;DHT22;1498;51.500;7.440;2023-02-03T15:12:49;10.80;99.90
2977;DHT22;1498;51.500;7.440;2023-02-03T15:17:53;10.70;99.90
2977;DHT22;1498;51.500;7.440;2023-02-03T15:20:33;10.70;99.90
2977;DHT22;1498;51.500;7.440;2023-02-03T15:23:01;10.70;99.90
2977;DHT22;1498;51.500;7.440;2023-02-03T15:25:29;10.70;99.90
2977;DHT22;1498;51.500;7.440;2023-02-03T15:28:27;10.70;99.90
2977;DHT22;1498;51.500;7.440;2023-02-03T15:31:18;10.70;99.90
2977;DHT22;1498;51.500;7.440;2023-02-03T15:33:46;10.80;99.90
2977;DHT22;1498;51.500;7.440;2023-02-03T15:36:20;10.70;99.90
2977;DHT22;1498;51.500;7.440;2023-02-03T15:39:01;10.70;99.90
2977;DHT22;1498;51.500;7.440;2023-02-03T15:41:29;10.80;99.90
2977;DHT22;1498;51.500;7.440;2023-02-03T15:44:00;10.70;99.90
2977;DHT22;1498;51.500;7.440;2023-02-03T15:49:05;10.70;99.90
2977;DHT22;1498;51.500;7.440;2023-02-03T15:51:40;10.70;99.90
2977;DHT22;1498;51.500;7.440;2023-02-03T15:56:41;10.70;99.90
2977;DHT22;1498;51.500;7.440;2023-02-03T15:59:35;10.80;99.90
2977;DHT22;1498;51.500;7.440;2023-02-03T16:04:35;10.70;99.90
2977;DHT22;1498;51.500;7.440;2023-02-03T16:07:01;10.70;99.90
2977;DHT22;1498;51.500;7.440;2023-02-03T16:09:32;10.80;99.90
2977;DHT22;1498;51.500;7.440;2023-02-03T16:12:21;10.80;99.90
2977;DHT22;1498;51.500;7.440;2023-02-03T16:14:47;10.80;99.90
2977;DHT22;1498;51.500;7.440;2023-02-03T16:19:50;10.70;99.90
2977;DHT22;1498;51.500;7.440;2023-02-03T16:22:30;10.70;99.90
2977;DHT22;1498;51.500;7.440;2023-02-03T16:25:21;10.80;99.90
2977;DHT22;1498;51.500;7.440;2023-02-03T16:27:57;10.80;99.90
2977;DHT22;1498;51.500;7.440;2023-02-03T16:30:58;10.70;99.90
2977;DHT22;1498;51.500;7.440;2023-02-03T16:33:47;10.60;99.90
2977;DHT22;1498;51.500;7.440;2023-02-03T16:36:32;10.60;99.90
2977;DHT22;1498;51.500;7.440;2023-02-03T16:39:17;10.60;99.90
2977;DHT22;1498;51.500;7.440;2023-02-03T16:42:11;10.50;99.90
2977;DHT22;1498;51.500;7.440;2023-02-03T16:44:56;10.50;99.90
2977;DHT22;1498;51.500;7.440;2023-02-03T16:47:40;10.50;99.90
2977;DHT22;1498;51.500;7.440;2023-02-03T16:50:26;10.50;99.90
2977;DHT22;1498;51.500;7.440;2023-02-03T16:53:12;10.50;99.90
2977;DHT22;1498;51.500;7.440;2023-02-03T16:55:39;10.50;99.90
2977;DHT22;1498;51.500;7.440;2023-02-03T16:58:04;10.50;99.90
2977;DHT22;1498;51.500;7.440;2023-02-03T17:00:30;10.50;99.90
2977;DHT22;1498;51.500;7.440;2023-02-03T17:02:55;10.50;99.90
2977;DHT22;1498;51.500;7.440;2023-02-03T17:05:21;10.50;99.90
2977;DHT22;1498;51.500;7.440;2023-02-03T17:07:47;10.50;99.90
2977;DHT22;1498;51.500;7.440;2023-02-03T17:10:13;10.60;99.90
2977;DHT22;1498;51.500;7.440;2023-02-03T17:12:39;10.50;99.90
2977;DHT22;1498;51.500;7.440;2023-02-03T17:15:05;10.60;99.90
2977;DHT22;1498;51.500;7.440;2023-02-03T17:17:31;10.60;99.90
2977;DHT22;1498;51.500;7.440;2023-02-03T17:19:57;10.60;99.90
2977;DHT22;1498;51.500;7.440;2023-02-03T17:22:24;10.60;99.90
2977;DHT22;1498;51.500;7.440;2023-02-03T17:24:50;10.60;99.90
2977;DHT22;1498;51.500;7.440;2023-02-03T17:27:15;10.60;99.90
2977;DHT22;1498;51.500;7.440;2023-02-03T17:29:41;10.50;99.90
2977;DHT22;1498;51.500;7.440;2023-02-03T17:32:06;10.60;99.90
2977;DHT22;1498;51.500;7.440;2023-02-03T17:34:33;10.50;99.90
2977;DHT22;1498;51.500;7.440;2023-02-03T17:36:59;10.50;99.90
2977;DHT22;1498;51.500;7.440;2023-02-03T17:39:24;10.50;99.90
2977;DHT22;1498;51.500;7.440;2023-02-03T17:41:51;10.50;99.90
2977;DHT22;1498;51.500;7.440;2023-02-03T17:44:17;10.50;99.90
2977;DHT22;1498;51.500;7.440;2023-02-03T17:46:42;10.50;99.90
2977;DHT22;1498;51.500;7.440;2023-02-03T17:49:09;10.40;99.90
2977;DHT22;1498;51.500;7.440;2023-02-03T17:51:34;10.50;99.90
2977;DHT22;1498;51.500;7.440;2023-02-03T17:54:00;10.50;99.90
2977;DHT22;1498;51.500;7.440;2023-02-03T17:56:31;10.50;99.90
2977;DHT22;1498;51.500;7.440;2023-02-03T17:58:59;10.50;99.90
2977;DHT22;1498;51.500;7.440;2023-02-03T18:01:25;10.50;99.90
2977;DHT22;1498;51.500;7.440;2023-02-03T18:03:54;10.60;99.90
2977;DHT22;1498;51.500;7.440;2023-02-03T18:06:21;10.60;99.90
2977;DHT22;1498;51.500;7.440;2023-02-03T18:08:47;10.50;99.90
2977;DHT22;1498;51.500;7.440;2023-02-03T18:11:14;10.60;99.90
2977;DHT22;1498;51.500;7.440;2023-02-03T18:13:42;10.50;99.90
2977;DHT22;1498;51.500;7.440;2023-02-03T18:16:11;10.60;99.90
2977;DHT22;1498;51.500;7.440;2023-02-03T18:18:40;10.50;99.90
2977;DHT22;1498;51.500;7.440;2023-02-03T18:21:07;10.60;99.90
2977;DHT22;1498;51.500;7.440;2023-02-03T18:23:35;10.50;99.90
2977;DHT22;1498;51.500;7.440;2023-02-03T18:26:01;10.50;99.90
2977;DHT22;1498;51.500;7.440;2023-02-03T18:28:26;10.50;99.90
2977;DHT22;1498;51.500;7.440;2023-02-03T18:31:04;10.40;99.90
2977;DHT22;1498;51.500;7.440;2023-02-03T18:33:31;10.40;99.90
2977;DHT22;1498;51.500;7.440;2023-02-03T18:35:57;10.40;99.90
2977;DHT22;1498;51.500;7.440;2023-02-03T18:38:24;10.40;99.90
2977;DHT22;1498;51.500;7.440;2023-02-03T18:40:50;10.40;99.90
2977;DHT22;1498;51.500;7.440;2023-02-03T18:43:16;10.40;99.90
2977;DHT22;1498;51.500;7.440;2023-02-03T18:45:41;10.40;99.90
2977;DHT22;1498;51.500;7.440;2023-02-03T18:48:07;10.40;99.90
2977;DHT22;1498;51.500;7.440;2023-02-03T18:50:32;10.40;99.90
2977;DHT22;1498;51.500;7.440;2023-02-03T18:52:58;10.40;99.90
2977;DHT22;1498;51.500;7.440;2023-02-03T18:55:24;10.40;99.90
2977;DHT22;1498;51.500;7.440;2023-02-03T18:57:49;10.40;99.90
2977;DHT22;1498;51.500;7.440;2023-02-03T19:00:15;10.40;99.90
2977;DHT22;1498;51.500;7.440;2023-02-03T19:02:40;10.40;99.90
2977;DHT22;1498;51.500;7.440;2023-02-03T19:05:06;10.40;99.90
2977;DHT22;1498;51.500;7.440;2023-02-03T19:07:34;10.30;99.90
2977;DHT22;1498;51.500;7.440;2023-02-03T19:09:59;10.30;99.90
2977;DHT22;1498;51.500;7.440;2023-02-03T19:12:25;10.30;99.90
2977;DHT22;1498;51.500;7.440;2023-02-03T19:14:52;10.30;99.90
2977;DHT22;1498;51.500;7.440;2023-02-03T19:17:17;10.30;99.90
2977;DHT22;1498;51.500;7.440;2023-02-03T19:19:43;10.30;99.90
2977;DHT22;1498;51.500;7.440;2023-02-03T19:22:11;10.30;99.90
2977;DHT22;1498;51.500;7.440;2023-02-03T19:24:36;10.30;99.90
2977;DHT22;1498;51.500;7.440;2023-02-03T19:27:02;10.30;99.90
2977;DHT22;1498;51.500;7.440;2023-02-03T19:29:28;10.30;99.90
2977;DHT22;1498;51.500;7.440;2023-02-03T19:31:53;10.30;99.90
2977;DHT22;1498;51.500;7.440;2023-02-03T19:34:19;10.30;99.90
2977;DHT22;1498;51.500;7.440;2023-02-03T19:36:45;10.30;99.90
2977;DHT22;1498;51.500;7.440;2023-02-03T19:39:11;10.30;99.90
2977;DHT22;1498;51.500;7.440;2023-02-03T19:41:38;10.30;99.90
2977;DHT22;1498;51.500;7.440;2023-02-03T19:44:04;10.20;99.90
2977;DHT22;1498;51.500;7.440;2023-02-03T19:46:32;10.20;99.90
2977;DHT22;1498;51.500;7.440;2023-02-03T19:49:02;10.20;99.90
2977;DHT22;1498;51.500;7.440;2023-02-03T19:51:31;10.20;99.90
2977;DHT22;1498;51.500;7.440;2023-02-03T19:53:57;10.20;99.90
2977;DHT22;1498;51.500;7.440;2023-02-03T19:56:23;10.20;99.90
2977;DHT22;1498;51.500;7.440;2023-02-03T19:58:48;10.20;99.90
2977;DHT22;1498;51.500;7.440;2023-02-03T20:01:17;10.20;99.90
2977;DHT22;1498;51.500;7.440;2023-02-03T20:03:42;10.20;99.90
2977;DHT22;1498;51.500;7.440;2023-02-03T20:06:08;10.20;99.90
2977;DHT22;1498;51.500;7.440;2023-02-03T20:08:34;10.20;99.90
2977;DHT22;1498;51.500;7.440;2023-02-03T20:11:00;10.20;99.90
2977;DHT22;1498;51.500;7.440;2023-02-03T20:13:27;10.30;99.90
2977;DHT22;1498;51.500;7.440;2023-02-03T20:15:53;10.10;99.90
2977;DHT22;1498;51.500;7.440;2023-02-03T20:18:19;10.10;99.90
2977;DHT22;1498;51.500;7.440;2023-02-03T20:20:52;10.10;99.90
2977;DHT22;1498;51.500;7.440;2023-02-03T20:23:19;10.10;99.90
2977;DHT22;1498;51.500;7.440;2023-02-03T20:25:51;10.10;99.90
2977;DHT22;1498;51.500;7.440;2023-02-03T20:28:17;10.10;99.90